KAVP/AVP METAR and TAF weather

Enter ICAO airport designator
Station Type Date Time Source
KAVP METAR 2020/06/06 01:54 UTC NOAA

KAVP 060154Z 24005KT 10SM CLR 23/18 A2988 RMK AO2 SLP109 T02330183


Station Type Date Time Source
KAVP Decoded METAR 2020/06/06 01:54 UTC NOAA

WILKES-BARRE/SCRANTON INTERNATIONAL , PA, United States (KAVP) 41-20N 75-44W 291M
Jun 05, 2020 - 09:54 PM EDT / 2020.06.06 0154 UTC
Wind: from the WSW (240 degrees) at 6 MPH (5 KT):0
Visibility: 10 mile(s):0
Sky conditions: clear
Temperature: 73.9 F (23.3 C)
Dew Point: 64.9 F (18.3 C)
Relative Humidity: 73%
Pressure (altimeter): 29.88 in. Hg (1011 hPa)
ob: KAVP 060154Z 24005KT 10SM CLR 23/18 A2988 RMK AO2 SLP109 T02330183
cycle: 2

Station Type Date Time Source
KAVP TAF 2020/06/05 18:39 UTC NOAA

TAF KAVP 051736Z 0518/0618 22005KT P6SM SCT025 OVC120
FM060300 VRB04KT P6SM BKN025
FM060600 VRB03KT P6SM BKN012
FM061500 30008KT P6SM SCT035

Example: see airport list